sensor_id;sensor_type;location;lat;lon;timestamp;P1;durP1;ratioP1;P2;durP2;ratioP2
35462;SDS011;21578;47.892;9.970;2022-07-21T00:01:29;10.20;;;9.17;;
35462;SDS011;21578;47.892;9.970;2022-07-21T00:06:16;10.17;;;9.20;;
35462;SDS011;21578;47.892;9.970;2022-07-21T00:11:03;10.80;;;9.20;;
35462;SDS011;21578;47.892;9.970;2022-07-21T00:15:51;10.47;;;9.67;;
35462;SDS011;21578;47.892;9.970;2022-07-21T00:20:39;11.73;;;10.57;;
35462;SDS011;21578;47.892;9.970;2022-07-21T00:25:26;12.77;;;11.47;;
35462;SDS011;21578;47.892;9.970;2022-07-21T00:30:13;13.47;;;11.33;;
35462;SDS011;21578;47.892;9.970;2022-07-21T00:35:01;12.97;;;11.83;;
35462;SDS011;21578;47.892;9.970;2022-07-21T00:39:50;13.47;;;12.37;;
35462;SDS011;21578;47.892;9.970;2022-07-21T00:44:37;13.90;;;12.20;;
35462;SDS011;21578;47.892;9.970;2022-07-21T00:49:24;14.13;;;12.83;;
35462;SDS011;21578;47.892;9.970;2022-07-21T00:54:13;14.87;;;13.33;;
35462;SDS011;21578;47.892;9.970;2022-07-21T00:59:03;14.60;;;13.27;;
35462;SDS011;21578;47.892;9.970;2022-07-21T01:03:50;14.83;;;13.50;;
35462;SDS011;21578;47.892;9.970;2022-07-21T01:08:37;15.03;;;13.50;;
35462;SDS011;21578;47.892;9.970;2022-07-21T01:13:24;14.60;;;13.23;;
35462;SDS011;21578;47.892;9.970;2022-07-21T01:18:13;14.83;;;13.43;;
35462;SDS011;21578;47.892;9.970;2022-07-21T01:23:02;16.23;;;14.63;;
35462;SDS011;21578;47.892;9.970;2022-07-21T01:27:50;15.80;;;14.40;;
35462;SDS011;21578;47.892;9.970;2022-07-21T01:32:37;16.57;;;14.87;;
35462;SDS011;21578;47.892;9.970;2022-07-21T01:37:27;16.77;;;15.07;;
35462;SDS011;21578;47.892;9.970;2022-07-21T01:42:16;16.40;;;14.87;;
35462;SDS011;21578;47.892;9.970;2022-07-21T01:47:03;16.83;;;15.33;;
35462;SDS011;21578;47.892;9.970;2022-07-21T01:51:51;17.80;;;16.00;;
35462;SDS011;21578;47.892;9.970;2022-07-21T01:56:39;17.87;;;16.17;;
35462;SDS011;21578;47.892;9.970;2022-07-21T02:01:28;18.43;;;16.60;;
35462;SDS011;21578;47.892;9.970;2022-07-21T02:06:16;18.90;;;16.90;;
35462;SDS011;21578;47.892;9.970;2022-07-21T02:11:03;19.97;;;18.17;;
35462;SDS011;21578;47.892;9.970;2022-07-21T02:15:52;21.40;;;19.20;;
35462;SDS011;21578;47.892;9.970;2022-07-21T02:20:40;20.77;;;18.87;;
35462;SDS011;21578;47.892;9.970;2022-07-21T02:25:27;21.07;;;18.93;;
35462;SDS011;21578;47.892;9.970;2022-07-21T02:30:14;21.97;;;19.77;;
35462;SDS011;21578;47.892;9.970;2022-07-21T02:35:01;21.33;;;19.13;;
35462;SDS011;21578;47.892;9.970;2022-07-21T02:39:50;23.10;;;20.90;;
35462;SDS011;21578;47.892;9.970;2022-07-21T02:44:37;24.00;;;21.50;;
35462;SDS011;21578;47.892;9.970;2022-07-21T02:49:24;22.33;;;20.13;;
35462;SDS011;21578;47.892;9.970;2022-07-21T02:54:11;23.73;;;21.33;;
35462;SDS011;21578;47.892;9.970;2022-07-21T02:59:00;23.50;;;21.23;;
35462;SDS011;21578;47.892;9.970;2022-07-21T03:03:47;24.93;;;22.17;;
35462;SDS011;21578;47.892;9.970;2022-07-21T03:08:34;23.53;;;21.27;;
35462;SDS011;21578;47.892;9.970;2022-07-21T03:13:21;25.80;;;23.30;;
35462;SDS011;21578;47.892;9.970;2022-07-21T03:18:10;25.70;;;23.00;;
35462;SDS011;21578;47.892;9.970;2022-07-21T03:22:57;26.10;;;23.40;;
35462;SDS011;21578;47.892;9.970;2022-07-21T03:27:44;28.67;;;23.93;;
35462;SDS011;21578;47.892;9.970;2022-07-21T03:32:31;27.67;;;24.90;;
35462;SDS011;21578;47.892;9.970;2022-07-21T03:37:20;28.10;;;25.37;;
35462;SDS011;21578;47.892;9.970;2022-07-21T03:42:07;26.17;;;23.63;;
35462;SDS011;21578;47.892;9.970;2022-07-21T03:46:54;28.50;;;25.70;;
35462;SDS011;21578;47.892;9.970;2022-07-21T03:51:41;27.10;;;24.40;;
35462;SDS011;21578;47.892;9.970;2022-07-21T03:56:29;27.60;;;24.73;;
35462;SDS011;21578;47.892;9.970;2022-07-21T04:01:16;26.20;;;23.80;;
35462;SDS011;21578;47.892;9.970;2022-07-21T04:06:04;24.17;;;21.77;;
35462;SDS011;21578;47.892;9.970;2022-07-21T04:10:55;20.90;;;19.00;;
35462;SDS011;21578;47.892;9.970;2022-07-21T04:15:44;21.63;;;19.47;;
35462;SDS011;21578;47.892;9.970;2022-07-21T04:20:32;22.73;;;20.53;;
35462;SDS011;21578;47.892;9.970;2022-07-21T04:25:19;21.67;;;19.37;;
35462;SDS011;21578;47.892;9.970;2022-07-21T04:30:08;20.33;;;18.40;;
35462;SDS011;21578;47.892;9.970;2022-07-21T04:34:58;19.40;;;17.60;;
35462;SDS011;21578;47.892;9.970;2022-07-21T04:39:45;20.07;;;16.97;;
35462;SDS011;21578;47.892;9.970;2022-07-21T04:44:32;18.43;;;16.70;;
35462;SDS011;21578;47.892;9.970;2022-07-21T04:49:19;19.50;;;17.57;;
35462;SDS011;21578;47.892;9.970;2022-07-21T04:54:07;18.37;;;16.57;;
35462;SDS011;21578;47.892;9.970;2022-07-21T04:58:54;18.90;;;17.03;;
35462;SDS011;21578;47.892;9.970;2022-07-21T05:03:41;19.97;;;18.03;;
35462;SDS011;21578;47.892;9.970;2022-07-21T05:08:28;18.17;;;16.40;;
35462;SDS011;21578;47.892;9.970;2022-07-21T05:13:17;17.30;;;15.70;;
35462;SDS011;21578;47.892;9.970;2022-07-21T05:18:06;18.83;;;16.93;;
35462;SDS011;21578;47.892;9.970;2022-07-21T05:22:54;18.47;;;16.67;;
35462;SDS011;21578;47.892;9.970;2022-07-21T05:27:41;19.13;;;17.23;;
35462;SDS011;21578;47.892;9.970;2022-07-21T05:32:29;19.27;;;17.27;;
35462;SDS011;21578;47.892;9.970;2022-07-21T05:37:16;19.97;;;17.97;;
35462;SDS011;21578;47.892;9.970;2022-07-21T05:42:03;20.10;;;18.10;;
35462;SDS011;21578;47.892;9.970;2022-07-21T05:46:50;19.63;;;17.73;;
35462;SDS011;21578;47.892;9.970;2022-07-21T05:51:39;23.03;;;20.77;;
35462;SDS011;21578;47.892;9.970;2022-07-21T05:56:26;20.67;;;18.57;;
35462;SDS011;21578;47.892;9.970;2022-07-21T06:01:13;20.87;;;18.67;;
35462;SDS011;21578;47.892;9.970;2022-07-21T06:06:01;20.23;;;18.13;;
35462;SDS011;21578;47.892;9.970;2022-07-21T06:10:50;19.47;;;17.50;;
35462;SDS011;21578;47.892;9.970;2022-07-21T06:15:37;18.43;;;16.77;;
35462;SDS011;21578;47.892;9.970;2022-07-21T06:20:24;19.27;;;17.33;;
35462;SDS011;21578;47.892;9.970;2022-07-21T06:25:11;20.67;;;16.97;;
35462;SDS011;21578;47.892;9.970;2022-07-21T06:29:59;19.37;;;17.23;;
35462;SDS011;21578;47.892;9.970;2022-07-21T06:34:46;19.00;;;17.00;;
35462;SDS011;21578;47.892;9.970;2022-07-21T06:39:33;19.60;;;17.57;;
35462;SDS011;21578;47.892;9.970;2022-07-21T06:44:24;18.80;;;16.80;;
35462;SDS011;21578;47.892;9.970;2022-07-21T06:49:13;18.63;;;16.70;;
35462;SDS011;21578;47.892;9.970;2022-07-21T06:54:00;18.40;;;16.80;;
35462;SDS011;21578;47.892;9.970;2022-07-21T06:58:47;18.63;;;16.77;;
35462;SDS011;21578;47.892;9.970;2022-07-21T07:03:34;18.00;;;16.20;;
35462;SDS011;21578;47.892;9.970;2022-07-21T07:08:23;18.27;;;16.47;;
35462;SDS011;21578;47.892;9.970;2022-07-21T07:13:10;17.03;;;15.53;;
35462;SDS011;21578;47.892;9.970;2022-07-21T07:17:58;17.00;;;15.20;;
35462;SDS011;21578;47.892;9.970;2022-07-21T07:22:45;17.97;;;16.17;;
35462;SDS011;21578;47.892;9.970;2022-07-21T07:27:33;16.70;;;15.10;;
35462;SDS011;21578;47.892;9.970;2022-07-21T07:32:21;16.37;;;14.73;;
35462;SDS011;21578;47.892;9.970;2022-07-21T07:37:08;17.00;;;15.30;;
35462;SDS011;21578;47.892;9.970;2022-07-21T07:41:55;16.33;;;14.73;;
35462;SDS011;21578;47.892;9.970;2022-07-21T07:46:43;17.10;;;15.27;;
35462;SDS011;21578;47.892;9.970;2022-07-21T07:51:30;15.63;;;14.13;;
35462;SDS011;21578;47.892;9.970;2022-07-21T07:56:17;16.20;;;14.60;;
35462;SDS011;21578;47.892;9.970;2022-07-21T08:01:05;16.50;;;14.63;;
35462;SDS011;21578;47.892;9.970;2022-07-21T08:05:53;17.17;;;15.43;;
35462;SDS011;21578;47.892;9.970;2022-07-21T08:10:44;16.53;;;14.77;;
35462;SDS011;21578;47.892;9.970;2022-07-21T08:15:31;17.07;;;15.37;;
35462;SDS011;21578;47.892;9.970;2022-07-21T08:20:18;17.23;;;15.53;;
35462;SDS011;21578;47.892;9.970;2022-07-21T08:25:07;16.17;;;14.67;;
35462;SDS011;21578;47.892;9.970;2022-07-21T08:29:54;15.90;;;14.30;;
35462;SDS011;21578;47.892;9.970;2022-07-21T08:34:41;16.57;;;14.87;;
35462;SDS011;21578;47.892;9.970;2022-07-21T08:39:28;17.97;;;15.37;;
35462;SDS011;21578;47.892;9.970;2022-07-21T08:44:17;15.43;;;13.97;;
35462;SDS011;21578;47.892;9.970;2022-07-21T08:49:06;14.70;;;13.20;;
35462;SDS011;21578;47.892;9.970;2022-07-21T08:53:54;13.57;;;12.37;;
35462;SDS011;21578;47.892;9.970;2022-07-21T08:58:41;15.33;;;13.77;;
35462;SDS011;21578;47.892;9.970;2022-07-21T09:03:29;16.77;;;13.67;;
35462;SDS011;21578;47.892;9.970;2022-07-21T09:08:17;14.33;;;12.87;;
35462;SDS011;21578;47.892;9.970;2022-07-21T09:13:15;14.83;;;12.83;;
35462;SDS011;21578;47.892;9.970;2022-07-21T09:18:06;14.67;;;13.27;;
35462;SDS011;21578;47.892;9.970;2022-07-21T09:23:03;14.43;;;12.97;;
35462;SDS011;21578;47.892;9.970;2022-07-21T09:27:53;12.17;;;10.97;;
35462;SDS011;21578;47.892;9.970;2022-07-21T09:32:56;12.37;;;11.17;;
35462;SDS011;21578;47.892;9.970;2022-07-21T09:37:43;11.80;;;10.70;;
35462;SDS011;21578;47.892;9.970;2022-07-21T09:42:32;11.20;;;10.20;;
35462;SDS011;21578;47.892;9.970;2022-07-21T09:47:21;12.67;;;10.00;;
35462;SDS011;21578;47.892;9.970;2022-07-21T09:57:21;9.57;;;8.70;;
35462;SDS011;21578;47.892;9.970;2022-07-21T10:02:13;12.27;;;6.83;;
35462;SDS011;21578;47.892;9.970;2022-07-21T10:07:03;8.30;;;7.50;;
35462;SDS011;21578;47.892;9.970;2022-07-21T10:11:50;8.00;;;6.20;;
35462;SDS011;21578;47.892;9.970;2022-07-21T10:16:37;9.40;;;8.50;;
35462;SDS011;21578;47.892;9.970;2022-07-21T10:21:29;8.23;;;7.53;;
35462;SDS011;21578;47.892;9.970;2022-07-21T10:26:25;9.23;;;8.33;;
35462;SDS011;21578;47.892;9.970;2022-07-21T10:31:13;8.87;;;7.00;;
35462;SDS011;21578;47.892;9.970;2022-07-21T10:36:02;8.90;;;7.87;;
35462;SDS011;21578;47.892;9.970;2022-07-21T10:40:51;7.47;;;6.80;;
35462;SDS011;21578;47.892;9.970;2022-07-21T10:45:38;8.03;;;7.20;;
35462;SDS011;21578;47.892;9.970;2022-07-21T10:50:29;6.80;;;6.20;;
35462;SDS011;21578;47.892;9.970;2022-07-21T10:55:18;8.73;;;7.93;;
35462;SDS011;21578;47.892;9.970;2022-07-21T11:00:17;5.57;;;5.07;;
35462;SDS011;21578;47.892;9.970;2022-07-21T11:05:09;5.90;;;5.27;;
35462;SDS011;21578;47.892;9.970;2022-07-21T11:15:00;5.83;;;5.33;;
35462;SDS011;21578;47.892;9.970;2022-07-21T11:19:50;6.17;;;5.60;;
35462;SDS011;21578;47.892;9.970;2022-07-21T11:24:38;6.67;;;5.90;;
35462;SDS011;21578;47.892;9.970;2022-07-21T11:29:26;6.53;;;5.93;;
35462;SDS011;21578;47.892;9.970;2022-07-21T11:34:13;6.33;;;5.73;;
35462;SDS011;21578;47.892;9.970;2022-07-21T11:39:03;7.83;;;5.20;;
35462;SDS011;21578;47.892;9.970;2022-07-21T11:43:52;6.20;;;5.60;;
35462;SDS011;21578;47.892;9.970;2022-07-21T11:48:39;5.93;;;5.33;;
35462;SDS011;21578;47.892;9.970;2022-07-21T11:53:27;7.20;;;6.20;;
35462;SDS011;21578;47.892;9.970;2022-07-21T11:58:15;5.70;;;5.10;;
35462;SDS011;21578;47.892;9.970;2022-07-21T12:03:05;5.60;;;5.03;;
35462;SDS011;21578;47.892;9.970;2022-07-21T12:07:55;5.40;;;5.00;;
35462;SDS011;21578;47.892;9.970;2022-07-21T12:12:43;6.90;;;6.20;;
35462;SDS011;21578;47.892;9.970;2022-07-21T12:17:33;6.57;;;5.70;;
35462;SDS011;21578;47.892;9.970;2022-07-21T12:22:31;7.37;;;5.67;;
35462;SDS011;21578;47.892;9.970;2022-07-21T12:27:20;6.30;;;5.67;;
35462;SDS011;21578;47.892;9.970;2022-07-21T12:32:07;6.90;;;6.10;;
35462;SDS011;21578;47.892;9.970;2022-07-21T12:36:55;6.60;;;6.03;;
35462;SDS011;21578;47.892;9.970;2022-07-21T12:41:44;7.57;;;6.53;;
35462;SDS011;21578;47.892;9.970;2022-07-21T12:46:31;7.57;;;6.67;;
35462;SDS011;21578;47.892;9.970;2022-07-21T12:51:20;7.40;;;6.70;;
35462;SDS011;21578;47.892;9.970;2022-07-21T12:56:10;7.07;;;6.30;;
35462;SDS011;21578;47.892;9.970;2022-07-21T13:00:58;9.27;;;6.60;;
35462;SDS011;21578;47.892;9.970;2022-07-21T13:05:45;7.40;;;6.43;;
35462;SDS011;21578;47.892;9.970;2022-07-21T13:10:32;9.80;;;6.60;;
35462;SDS011;21578;47.892;9.970;2022-07-21T13:15:20;8.27;;;5.63;;
35462;SDS011;21578;47.892;9.970;2022-07-21T13:20:08;6.80;;;6.30;;
35462;SDS011;21578;47.892;9.970;2022-07-21T13:24:55;7.00;;;6.40;;
35462;SDS011;21578;47.892;9.970;2022-07-21T13:29:42;7.63;;;6.87;;
35462;SDS011;21578;47.892;9.970;2022-07-21T13:34:30;7.37;;;6.60;;
35462;SDS011;21578;47.892;9.970;2022-07-21T13:39:17;7.60;;;6.60;;
35462;SDS011;21578;47.892;9.970;2022-07-21T13:44:06;8.03;;;7.33;;
35462;SDS011;21578;47.892;9.970;2022-07-21T13:48:53;9.17;;;7.33;;
35462;SDS011;21578;47.892;9.970;2022-07-21T13:53:41;8.33;;;7.63;;
35462;SDS011;21578;47.892;9.970;2022-07-21T13:58:30;7.50;;;6.80;;
35462;SDS011;21578;47.892;9.970;2022-07-21T14:03:17;6.90;;;6.20;;
35462;SDS011;21578;47.892;9.970;2022-07-21T14:08:05;7.32;;;6.72;;
35462;SDS011;21578;47.892;9.970;2022-07-21T14:12:53;7.20;;;6.47;;
35462;SDS011;21578;47.892;9.970;2022-07-21T14:17:40;7.63;;;6.85;;
35462;SDS011;21578;47.892;9.970;2022-07-21T14:22:27;6.47;;;5.68;;
35462;SDS011;21578;47.892;9.970;2022-07-21T14:27:14;6.50;;;5.90;;
35462;SDS011;21578;47.892;9.970;2022-07-21T14:32:03;6.15;;;5.60;;
35462;SDS011;21578;47.892;9.970;2022-07-21T14:36:50;7.13;;;6.53;;
35462;SDS011;21578;47.892;9.970;2022-07-21T14:41:37;6.15;;;5.63;;
35462;SDS011;21578;47.892;9.970;2022-07-21T14:46:24;5.38;;;4.88;;
35462;SDS011;21578;47.892;9.970;2022-07-21T14:51:13;7.10;;;5.80;;
35462;SDS011;21578;47.892;9.970;2022-07-21T14:56:00;7.63;;;5.10;;
35462;SDS011;21578;47.892;9.970;2022-07-21T15:00:48;4.87;;;4.47;;
35462;SDS011;21578;47.892;9.970;2022-07-21T15:05:35;5.05;;;4.60;;
35462;SDS011;21578;47.892;9.970;2022-07-21T15:10:24;4.93;;;4.47;;
35462;SDS011;21578;47.892;9.970;2022-07-21T15:15:11;4.88;;;4.47;;
35462;SDS011;21578;47.892;9.970;2022-07-21T15:19:58;4.80;;;4.40;;
35462;SDS011;21578;47.892;9.970;2022-07-21T15:24:45;5.13;;;4.72;;
35462;SDS011;21578;47.892;9.970;2022-07-21T15:29:33;4.47;;;4.05;;
35462;SDS011;21578;47.892;9.970;2022-07-21T15:34:23;4.60;;;4.25;;
35462;SDS011;21578;47.892;9.970;2022-07-21T15:39:10;4.65;;;4.25;;
35462;SDS011;21578;47.892;9.970;2022-07-21T15:43:57;4.43;;;4.10;;
35462;SDS011;21578;47.892;9.970;2022-07-21T15:48:45;4.82;;;4.10;;
35462;SDS011;21578;47.892;9.970;2022-07-21T15:53:32;4.70;;;4.30;;
35462;SDS011;21578;47.892;9.970;2022-07-21T15:58:21;4.82;;;4.43;;
35462;SDS011;21578;47.892;9.970;2022-07-21T16:03:08;4.40;;;4.00;;
35462;SDS011;21578;47.892;9.970;2022-07-21T16:07:56;5.32;;;4.72;;
35462;SDS011;21578;47.892;9.970;2022-07-21T16:12:43;6.03;;;4.57;;
35462;SDS011;21578;47.892;9.970;2022-07-21T16:17:31;4.97;;;4.30;;
35462;SDS011;21578;47.892;9.970;2022-07-21T16:22:18;5.28;;;4.30;;
35462;SDS011;21578;47.892;9.970;2022-07-21T16:27:07;5.25;;;4.75;;
35462;SDS011;21578;47.892;9.970;2022-07-21T16:31:54;4.65;;;4.28;;
35462;SDS011;21578;47.892;9.970;2022-07-21T16:36:43;4.60;;;4.20;;
35462;SDS011;21578;47.892;9.970;2022-07-21T16:41:30;7.00;;;4.20;;
35462;SDS011;21578;47.892;9.970;2022-07-21T16:46:19;4.40;;;4.05;;
35462;SDS011;21578;47.892;9.970;2022-07-21T16:51:06;4.85;;;4.43;;
35462;SDS011;21578;47.892;9.970;2022-07-21T16:55:53;4.38;;;4.05;;
35462;SDS011;21578;47.892;9.970;2022-07-21T17:00:40;6.13;;;4.30;;
35462;SDS011;21578;47.892;9.970;2022-07-21T17:05:29;4.63;;;4.22;;
35462;SDS011;21578;47.892;9.970;2022-07-21T17:10:16;4.32;;;4.03;;
35462;SDS011;21578;47.892;9.970;2022-07-21T17:15:04;4.07;;;3.78;;
35462;SDS011;21578;47.892;9.970;2022-07-21T17:19:51;4.38;;;3.97;;
35462;SDS011;21578;47.892;9.970;2022-07-21T17:24:40;4.50;;;4.10;;
35462;SDS011;21578;47.892;9.970;2022-07-21T17:29:27;4.07;;;3.83;;
35462;SDS011;21578;47.892;9.970;2022-07-21T17:34:14;4.25;;;3.95;;
35462;SDS011;21578;47.892;9.970;2022-07-21T17:39:01;4.82;;;3.78;;
35462;SDS011;21578;47.892;9.970;2022-07-21T17:43:50;3.80;;;3.50;;
35462;SDS011;21578;47.892;9.970;2022-07-21T17:48:37;3.80;;;3.50;;
35462;SDS011;21578;47.892;9.970;2022-07-21T17:53:24;4.72;;;4.35;;
35462;SDS011;21578;47.892;9.970;2022-07-21T17:58:11;4.97;;;3.95;;
35462;SDS011;21578;47.892;9.970;2022-07-21T18:03:17;5.43;;;4.10;;
35462;SDS011;21578;47.892;9.970;2022-07-21T18:08:04;4.93;;;4.50;;
35462;SDS011;21578;47.892;9.970;2022-07-21T18:12:51;4.70;;;4.13;;
35462;SDS011;21578;47.892;9.970;2022-07-21T18:17:38;4.68;;;4.15;;
35462;SDS011;21578;47.892;9.970;2022-07-21T18:22:26;4.53;;;3.83;;
35462;SDS011;21578;47.892;9.970;2022-07-21T18:27:13;4.97;;;4.30;;
35462;SDS011;21578;47.892;9.970;2022-07-21T18:32:01;4.47;;;4.10;;
35462;SDS011;21578;47.892;9.970;2022-07-21T18:36:48;4.43;;;4.13;;
35462;SDS011;21578;47.892;9.970;2022-07-21T18:41:36;4.68;;;4.13;;
35462;SDS011;21578;47.892;9.970;2022-07-21T18:46:23;4.88;;;4.35;;
35462;SDS011;21578;47.892;9.970;2022-07-21T18:51:10;4.78;;;4.38;;
35462;SDS011;21578;47.892;9.970;2022-07-21T18:55:57;4.47;;;4.07;;
35462;SDS011;21578;47.892;9.970;2022-07-21T19:00:46;5.30;;;4.75;;
35462;SDS011;21578;47.892;9.970;2022-07-21T19:05:33;5.82;;;5.05;;
35462;SDS011;21578;47.892;9.970;2022-07-21T19:10:21;5.57;;;5.05;;
35462;SDS011;21578;47.892;9.970;2022-07-21T19:15:09;4.47;;;4.17;;
35462;SDS011;21578;47.892;9.970;2022-07-21T19:19:58;5.23;;;4.60;;
35462;SDS011;21578;47.892;9.970;2022-07-21T19:24:45;4.60;;;4.23;;
35462;SDS011;21578;47.892;9.970;2022-07-21T19:29:32;5.40;;;4.90;;
35462;SDS011;21578;47.892;9.970;2022-07-21T19:34:19;5.63;;;5.23;;
35462;SDS011;21578;47.892;9.970;2022-07-21T19:39:07;5.50;;;5.00;;
35462;SDS011;21578;47.892;9.970;2022-07-21T19:43:54;5.70;;;5.30;;
35462;SDS011;21578;47.892;9.970;2022-07-21T19:48:41;5.83;;;5.33;;
35462;SDS011;21578;47.892;9.970;2022-07-21T19:53:28;7.03;;;5.33;;
35462;SDS011;21578;47.892;9.970;2022-07-21T19:58:20;5.60;;;5.20;;
35462;SDS011;21578;47.892;9.970;2022-07-21T20:03:07;6.00;;;5.33;;
35462;SDS011;21578;47.892;9.970;2022-07-21T20:07:54;5.77;;;5.00;;
35462;SDS011;21578;47.892;9.970;2022-07-21T20:12:42;6.23;;;5.63;;
35462;SDS011;21578;47.892;9.970;2022-07-21T20:17:30;5.73;;;5.23;;
35462;SDS011;21578;47.892;9.970;2022-07-21T20:22:17;5.73;;;5.23;;
35462;SDS011;21578;47.892;9.970;2022-07-21T20:27:04;5.50;;;5.03;;
35462;SDS011;21578;47.892;9.970;2022-07-21T20:31:51;5.77;;;5.27;;
35462;SDS011;21578;47.892;9.970;2022-07-21T20:36:40;5.53;;;5.07;;
35462;SDS011;21578;47.892;9.970;2022-07-21T20:41:27;6.00;;;5.37;;
35462;SDS011;21578;47.892;9.970;2022-07-21T20:46:14;5.57;;;5.17;;
35462;SDS011;21578;47.892;9.970;2022-07-21T20:51:01;5.93;;;5.43;;
35462;SDS011;21578;47.892;9.970;2022-07-21T20:55:49;5.90;;;5.40;;
35462;SDS011;21578;47.892;9.970;2022-07-21T21:00:36;5.83;;;5.33;;
35462;SDS011;21578;47.892;9.970;2022-07-21T21:05:23;5.97;;;5.47;;
35462;SDS011;21578;47.892;9.970;2022-07-21T21:10:10;6.40;;;5.90;;
35462;SDS011;21578;47.892;9.970;2022-07-21T21:14:59;6.53;;;5.87;;
35462;SDS011;21578;47.892;9.970;2022-07-21T21:19:46;5.87;;;5.40;;
35462;SDS011;21578;47.892;9.970;2022-07-21T21:24:33;6.10;;;5.60;;
35462;SDS011;21578;47.892;9.970;2022-07-21T21:29:20;6.20;;;5.60;;
35462;SDS011;21578;47.892;9.970;2022-07-21T21:34:08;6.73;;;6.13;;
35462;SDS011;21578;47.892;9.970;2022-07-21T21:38:56;6.37;;;5.77;;
35462;SDS011;21578;47.892;9.970;2022-07-21T21:43:43;6.70;;;6.10;;
35462;SDS011;21578;47.892;9.970;2022-07-21T21:48:30;7.20;;;6.50;;
35462;SDS011;21578;47.892;9.970;2022-07-21T21:53:18;7.13;;;6.53;;
35462;SDS011;21578;47.892;9.970;2022-07-21T21:58:05;6.80;;;6.20;;
35462;SDS011;21578;47.892;9.970;2022-07-21T22:02:52;7.00;;;6.40;;
35462;SDS011;21578;47.892;9.970;2022-07-21T22:07:39;6.70;;;6.10;;
35462;SDS011;21578;47.892;9.970;2022-07-21T22:12:28;6.63;;;6.03;;
35462;SDS011;21578;47.892;9.970;2022-07-21T22:17:15;6.90;;;6.37;;
35462;SDS011;21578;47.892;9.970;2022-07-21T22:22:02;7.27;;;6.57;;
35462;SDS011;21578;47.892;9.970;2022-07-21T22:26:49;7.23;;;6.20;;
35462;SDS011;21578;47.892;9.970;2022-07-21T22:31:38;6.17;;;5.67;;
35462;SDS011;21578;47.892;9.970;2022-07-21T22:36:25;6.73;;;6.13;;
35462;SDS011;21578;47.892;9.970;2022-07-21T22:41:12;7.00;;;6.30;;
35462;SDS011;21578;47.892;9.970;2022-07-21T22:45:59;7.43;;;6.47;;
35462;SDS011;21578;47.892;9.970;2022-07-21T22:50:49;7.83;;;6.33;;
35462;SDS011;21578;47.892;9.970;2022-07-21T22:55:36;7.10;;;6.50;;
35462;SDS011;21578;47.892;9.970;2022-07-21T23:00:24;7.47;;;6.47;;
35462;SDS011;21578;47.892;9.970;2022-07-21T23:05:11;6.70;;;6.13;;
35462;SDS011;21578;47.892;9.970;2022-07-21T23:09:59;6.80;;;6.20;;
35462;SDS011;21578;47.892;9.970;2022-07-21T23:14:46;8.17;;;6.03;;
35462;SDS011;21578;47.892;9.970;2022-07-21T23:19:33;6.93;;;5.80;;
35462;SDS011;21578;47.892;9.970;2022-07-21T23:24:20;6.40;;;5.90;;
35462;SDS011;21578;47.892;9.970;2022-07-21T23:29:09;6.47;;;5.87;;
35462;SDS011;21578;47.892;9.970;2022-07-21T23:33:56;6.47;;;5.87;;
35462;SDS011;21578;47.892;9.970;2022-07-21T23:38:43;6.47;;;5.83;;
35462;SDS011;21578;47.892;9.970;2022-07-21T23:43:31;5.93;;;5.43;;
35462;SDS011;21578;47.892;9.970;2022-07-21T23:48:19;5.53;;;5.03;;
35462;SDS011;21578;47.892;9.970;2022-07-21T23:53:06;6.10;;;5.50;;
35462;SDS011;21578;47.892;9.970;2022-07-21T23:57:53;5.67;;;5.17;;
